Time;durP1;ratioP1;P1;durP2;ratioP2;P2;SDS_P1;SDS_P2;PMS_P1;PMS_P2;Temp;Humidity;BMP_temperature;BMP_pressure;BME280_temperature;BME280_humidity;BME280_pressure;Samples;Min_cycle;Max_cycle;Signal;HPM_P1;HPM_P2
2022/02/21 00:00:42;;;;;;;1.48;0.55;;;;;;;;;;5072183;28;20036;-46
2022/02/21 00:03:08;;;;;;;1.02;0.50;;;;;;;;;;5072337;28;20392;-47
2022/02/21 00:05:35;;;;;;;0.60;0.40;;;;;;;;;;5071642;28;20028;-45
2022/02/21 00:08:01;;;;;;;0.63;0.40;;;;;;;;;;5072284;28;20036;-46
2022/02/21 00:10:27;;;;;;;1.30;0.40;;;;;;;;;;5071696;28;20052;-50
2022/02/21 00:12:53;;;;;;;0.77;0.40;;;;;;;;;;5072002;28;20066;-47
2022/02/21 00:15:23;;;;;;;0.45;0.30;;;;;;;;;;5071572;28;20024;-48
2022/02/21 00:17:50;;;;;;;1.27;0.60;;;;;;;;;;5072074;28;20115;-47
2022/02/21 00:20:16;;;;;;;0.55;0.38;;;;;;;;;;5071619;28;20469;-48
2022/02/21 00:22:42;;;;;;;1.67;0.80;;;;;;;;;;5072120;28;20029;-45
2022/02/21 00:25:08;;;;;;;0.50;0.47;;;;;;;;;;5072025;28;20108;-45
2022/02/21 00:27:34;;;;;;;0.63;0.57;;;;;;;;;;5071276;28;20032;-45
2022/02/21 00:30:00;;;;;;;1.40;0.68;;;;;;;;;;5071926;28;20058;-45
2022/02/21 00:32:26;;;;;;;1.20;0.38;;;;;;;;;;5071353;28;20044;-46
2022/02/21 00:34:52;;;;;;;1.17;0.50;;;;;;;;;;5071691;28;20470;-45
2022/02/21 00:37:18;;;;;;;1.08;0.40;;;;;;;;;;5071182;28;20052;-45
2022/02/21 00:39:44;;;;;;;0.90;0.57;;;;;;;;;;5071602;28;20055;-44
2022/02/21 00:42:10;;;;;;;0.73;0.50;;;;;;;;;;5072134;28;20028;-45
2022/02/21 00:44:37;;;;;;;0.65;0.50;;;;;;;;;;5053348;28;20022;-44
2022/02/21 00:47:03;;;;;;;1.00;0.50;;;;;;;;;;5051673;28;20021;-45
2022/02/21 00:49:29;;;;;;;1.42;0.63;;;;;;;;;;5051264;28;20037;-45
2022/02/21 00:51:58;;;;;;;0.90;0.38;;;;;;;;;;5051771;28;20025;-44
2022/02/21 00:54:24;;;;;;;1.95;1.08;;;;;;;;;;5053558;28;20113;-45
2022/02/21 00:56:50;;;;;;;1.17;0.47;;;;;;;;;;5055757;28;20063;-49
2022/02/21 00:59:16;;;;;;;1.02;0.40;;;;;;;;;;5055185;28;20037;-45
2022/02/21 01:01:42;;;;;;;0.70;0.38;;;;;;;;;;5055958;28;20459;-45
2022/02/21 01:04:08;;;;;;;1.10;0.30;;;;;;;;;;5055662;28;20025;-44
2022/02/21 01:06:34;;;;;;;1.65;0.50;;;;;;;;;;5054830;28;20032;-45
2022/02/21 01:09:00;;;;;;;0.38;0.30;;;;;;;;;;5055182;28;20055;-45
2022/02/21 01:11:30;;;;;;;0.55;0.50;;;;;;;;;;5054677;28;20028;-44
2022/02/21 01:14:00;;;;;;;2.22;0.63;;;;;;;;;;5055245;28;20040;-46
2022/02/21 01:16:26;;;;;;;1.30;0.40;;;;;;;;;;5054574;28;20021;-46
2022/02/21 01:18:52;;;;;;;0.57;0.30;;;;;;;;;;5055062;28;20021;-48
2022/02/21 01:21:19;;;;;;;0.85;0.50;;;;;;;;;;5054475;28;20037;-45
2022/02/21 01:23:45;;;;;;;0.47;0.47;;;;;;;;;;5055353;28;20029;-45
2022/02/21 01:26:11;;;;;;;1.42;0.50;;;;;;;;;;5054990;28;20071;-45
2022/02/21 01:28:37;;;;;;;0.50;0.25;;;;;;;;;;5054416;28;20028;-45
2022/02/21 01:31:03;;;;;;;0.57;0.40;;;;;;;;;;5054749;28;20056;-45
2022/02/21 01:33:29;;;;;;;1.08;0.40;;;;;;;;;;5054283;28;20112;-45
2022/02/21 01:35:58;;;;;;;1.67;0.52;;;;;;;;;;5054846;28;20021;-44
2022/02/21 01:38:24;;;;;;;1.33;0.40;;;;;;;;;;5054198;28;20049;-45
2022/02/21 01:40:50;;;;;;;0.65;0.45;;;;;;;;;;5054633;28;20096;-44
2022/02/21 01:43:17;;;;;;;1.02;0.55;;;;;;;;;;5060914;28;20042;-55
2022/02/21 01:45:43;;;;;;;0.75;0.30;;;;;;;;;;5074753;28;20028;-45
2022/02/21 01:48:09;;;;;;;0.47;0.40;;;;;;;;;;5074139;28;20028;-46
2022/02/21 01:50:35;;;;;;;0.82;0.40;;;;;;;;;;5061782;28;20199;-46
2022/02/21 01:53:02;;;;;;;1.45;0.55;;;;;;;;;;5063794;28;20017;-45
2022/02/21 01:55:28;;;;;;;1.40;0.60;;;;;;;;;;5062427;28;20079;-45
2022/02/21 01:57:54;;;;;;;1.02;0.40;;;;;;;;;;5062403;28;20362;-46
2022/02/21 02:00:20;;;;;;;0.70;0.40;;;;;;;;;;5063262;28;20033;-46
2022/02/21 02:02:46;;;;;;;1.15;0.40;;;;;;;;;;5063003;28;20079;-45
2022/02/21 02:05:15;;;;;;;0.98;0.68;;;;;;;;;;5061783;28;20016;-45
2022/02/21 02:07:42;;;;;;;1.45;0.50;;;;;;;;;;5063736;28;20044;-45
2022/02/21 02:10:09;;;;;;;1.85;0.85;;;;;;;;;;5062759;28;20025;-44
2022/02/21 02:12:35;;;;;;;0.60;0.40;;;;;;;;;;5061433;28;20029;-47
2022/02/21 02:15:01;;;;;;;1.52;0.57;;;;;;;;;;5063597;28;20013;-49
2022/02/21 02:17:27;;;;;;;0.47;0.30;;;;;;;;;;5061775;28;20374;-44
2022/02/21 02:19:53;;;;;;;0.63;0.30;;;;;;;;;;5061989;28;20029;-45
2022/02/21 02:22:23;;;;;;;0.43;0.40;;;;;;;;;;5045148;28;20377;-45
2022/02/21 02:24:50;;;;;;;0.80;0.40;;;;;;;;;;5062252;28;20031;-45
2022/02/21 02:27:17;;;;;;;1.55;0.50;;;;;;;;;;5061119;28;20021;-45
2022/02/21 02:29:43;;;;;;;0.40;0.30;;;;;;;;;;5061485;28;20090;-45
2022/02/21 02:32:10;;;;;;;1.13;0.40;;;;;;;;;;5062296;28;20020;-45
2022/02/21 02:34:40;;;;;;;0.70;0.38;;;;;;;;;;5062729;28;20777;-45
2022/02/21 02:37:06;;;;;;;0.50;0.20;;;;;;;;;;5061630;28;20048;-45
2022/02/21 02:39:33;;;;;;;1.25;0.47;;;;;;;;;;5061090;28;20028;-47
2022/02/21 02:41:59;;;;;;;1.20;0.50;;;;;;;;;;5063437;28;20074;-46
2022/02/21 02:44:25;;;;;;;1.50;0.50;;;;;;;;;;5061369;28;20052;-51
2022/02/21 02:46:51;;;;;;;0.68;0.40;;;;;;;;;;5062615;28;20028;-46
2022/02/21 02:49:17;;;;;;;1.20;0.40;;;;;;;;;;5060630;28;20029;-55
2022/02/21 02:51:43;;;;;;;0.75;0.22;;;;;;;;;;5062905;28;20020;-48
2022/02/21 02:54:12;;;;;;;1.75;0.43;;;;;;;;;;5061862;28;20100;-47
2022/02/21 02:56:39;;;;;;;1.13;0.50;;;;;;;;;;5060223;28;20294;-45
2022/02/21 02:59:05;;;;;;;0.52;0.30;;;;;;;;;;5061851;28;20028;-48
2022/02/21 03:01:31;;;;;;;2.25;0.70;;;;;;;;;;5061482;28;20025;-45
2022/02/21 03:03:57;;;;;;;1.17;0.40;;;;;;;;;;5060889;28;20044;-45
2022/02/21 03:06:24;;;;;;;1.25;0.30;;;;;;;;;;5061983;28;20070;-45
2022/02/21 03:08:50;;;;;;;1.10;0.60;;;;;;;;;;5061732;28;20045;-45
2022/02/21 03:11:17;;;;;;;1.15;0.50;;;;;;;;;;5060553;28;20075;-45
2022/02/21 03:13:43;;;;;;;0.55;0.40;;;;;;;;;;5060851;28;20082;-45
2022/02/21 03:16:09;;;;;;;0.43;0.30;;;;;;;;;;5061732;28;20020;-45
2022/02/21 03:18:35;;;;;;;0.90;0.30;;;;;;;;;;5061617;28;20029;-47
2022/02/21 03:21:01;;;;;;;0.63;0.28;;;;;;;;;;5060290;28;20083;-45
2022/02/21 03:23:27;;;;;;;1.33;0.75;;;;;;;;;;5061096;28;20024;-45
2022/02/21 03:25:53;;;;;;;0.55;0.30;;;;;;;;;;5062002;28;20021;-45
2022/02/21 03:28:19;;;;;;;1.35;0.77;;;;;;;;;;5059688;28;20036;-46
2022/02/21 03:30:45;;;;;;;2.05;0.50;;;;;;;;;;5061513;28;20036;-47
2022/02/21 03:33:11;;;;;;;0.63;0.52;;;;;;;;;;5061272;28;20481;-46
2022/02/21 03:35:37;;;;;;;0.50;0.20;;;;;;;;;;5059589;28;20267;-45
2022/02/21 03:38:04;;;;;;;1.15;0.40;;;;;;;;;;5062055;28;20046;-47
2022/02/21 03:40:30;;;;;;;1.70;0.60;;;;;;;;;;5060495;28;20465;-44
2022/02/21 03:42:57;;;;;;;0.43;0.30;;;;;;;;;;5061683;28;20470;-45
2022/02/21 03:45:23;;;;;;;1.23;0.38;;;;;;;;;;5059520;28;20058;-46
2022/02/21 03:47:53;;;;;;;0.90;0.52;;;;;;;;;;5061013;28;20025;-46
2022/02/21 03:50:19;;;;;;;0.57;0.38;;;;;;;;;;5061295;28;20028;-47
2022/02/21 03:52:45;;;;;;;1.17;0.65;;;;;;;;;;5060125;28;20424;-47
2022/02/21 03:55:11;;;;;;;2.10;0.73;;;;;;;;;;5060721;28;20024;-45
2022/02/21 03:57:37;;;;;;;0.65;0.30;;;;;;;;;;5061216;28;20037;-48
2022/02/21 04:00:05;;;;;;;1.05;0.50;;;;;;;;;;5060106;28;20075;-45
2022/02/21 04:02:31;;;;;;;0.60;0.50;;;;;;;;;;5059775;28;20465;-45
2022/02/21 04:05:00;;;;;;;0.85;0.55;;;;;;;;;;5061634;28;20039;-45
2022/02/21 04:07:26;;;;;;;0.73;0.40;;;;;;;;;;5059839;28;20044;-45
2022/02/21 04:09:52;;;;;;;1.27;0.22;;;;;;;;;;5060436;28;20032;-45
2022/02/21 04:12:18;;;;;;;0.90;0.40;;;;;;;;;;5061230;28;20029;-55
2022/02/21 04:14:44;;;;;;;1.58;0.32;;;;;;;;;;5060377;28;20096;-45
2022/02/21 04:17:10;;;;;;;0.35;0.32;;;;;;;;;;5060703;28;20021;-45
2022/02/21 04:19:36;;;;;;;1.50;0.40;;;;;;;;;;5058276;28;20040;-46
2022/02/21 04:22:03;;;;;;;0.52;0.35;;;;;;;;;;5051776;28;20383;-45
2022/02/21 04:24:29;;;;;;;0.90;0.50;;;;;;;;;;5051172;28;20056;-45
2022/02/21 04:26:55;;;;;;;0.90;0.30;;;;;;;;;;5052042;28;20456;-46
2022/02/21 04:29:21;;;;;;;1.42;0.55;;;;;;;;;;5053647;28;20105;-50
2022/02/21 04:31:47;;;;;;;0.73;0.28;;;;;;;;;;5055997;28;20036;-46
2022/02/21 04:34:13;;;;;;;1.00;0.32;;;;;;;;;;5055948;28;20025;-45
2022/02/21 04:36:40;;;;;;;0.40;0.32;;;;;;;;;;5055030;28;20478;-46
2022/02/21 04:39:06;;;;;;;1.15;0.50;;;;;;;;;;5056027;28;20072;-45
2022/02/21 04:41:32;;;;;;;0.45;0.30;;;;;;;;;;5055177;28;20036;-46
2022/02/21 04:43:58;;;;;;;0.63;0.38;;;;;;;;;;5068163;28;20016;-48
2022/02/21 04:46:24;;;;;;;1.05;0.43;;;;;;;;;;5075070;28;20024;-46
2022/02/21 04:48:50;;;;;;;0.82;0.55;;;;;;;;;;5075566;28;20086;-45
2022/02/21 04:51:16;;;;;;;3.25;0.40;;;;;;;;;;5075653;28;20024;-46
2022/02/21 04:53:42;;;;;;;0.63;0.30;;;;;;;;;;5075018;28;20025;-45
2022/02/21 04:56:08;;;;;;;3.75;0.80;;;;;;;;;;5075512;28;20385;-45
2022/02/21 04:58:34;;;;;;;0.63;0.40;;;;;;;;;;5075144;28;20056;-45
2022/02/21 05:01:00;;;;;;;1.55;0.50;;;;;;;;;;5075466;28;20064;-45
2022/02/21 05:03:26;;;;;;;0.93;0.50;;;;;;;;;;5074917;28;20033;-45
2022/02/21 05:05:52;;;;;;;1.15;0.40;;;;;;;;;;5075175;28;20024;-46
2022/02/21 05:08:18;;;;;;;0.45;0.40;;;;;;;;;;5075309;28;20052;-46
2022/02/21 05:10:44;;;;;;;0.82;0.50;;;;;;;;;;5074700;28;20078;-45
2022/02/21 05:13:10;;;;;;;1.35;0.75;;;;;;;;;;5075320;28;20017;-46
2022/02/21 05:15:36;;;;;;;0.75;0.65;;;;;;;;;;5074448;28;20017;-53
2022/02/21 05:18:02;;;;;;;0.60;0.30;;;;;;;;;;5075095;28;20023;-45
2022/02/21 05:20:28;;;;;;;0.93;0.70;;;;;;;;;;5074340;28;20021;-45
2022/02/21 05:22:54;;;;;;;1.00;0.40;;;;;;;;;;5075255;28;20496;-45
2022/02/21 05:25:20;;;;;;;0.30;0.30;;;;;;;;;;5075161;28;20029;-45
2022/02/21 05:27:46;;;;;;;0.75;0.43;;;;;;;;;;5074768;28;20035;-45
2022/02/21 05:30:13;;;;;;;0.50;0.40;;;;;;;;;;5074976;28;20119;-45
2022/02/21 05:32:39;;;;;;;0.75;0.40;;;;;;;;;;5073892;28;20513;-45
2022/02/21 05:35:05;;;;;;;0.32;0.30;;;;;;;;;;5074833;28;20051;-45
2022/02/21 05:37:31;;;;;;;0.95;0.40;;;;;;;;;;5074052;28;20127;-45
2022/02/21 05:39:57;;;;;;;1.08;0.60;;;;;;;;;;5073622;28;20074;-45
2022/02/21 05:42:23;;;;;;;1.15;0.50;;;;;;;;;;5074020;28;20024;-45
2022/02/21 05:44:49;;;;;;;1.08;0.70;;;;;;;;;;5074412;28;20028;-44
2022/02/21 05:47:15;;;;;;;2.10;0.35;;;;;;;;;;5074605;28;20573;-45
2022/02/21 05:49:41;;;;;;;0.88;0.40;;;;;;;;;;5074082;28;20366;-45
2022/02/21 05:52:07;;;;;;;2.00;0.60;;;;;;;;;;5074364;28;20027;-45
2022/02/21 05:54:33;;;;;;;1.27;0.45;;;;;;;;;;5074036;28;20021;-45
2022/02/21 05:57:00;;;;;;;0.73;0.28;;;;;;;;;;5074136;28;20460;-45
2022/02/21 05:59:26;;;;;;;3.08;0.80;;;;;;;;;;5073929;28;20105;-45
2022/02/21 06:01:52;;;;;;;0.70;0.32;;;;;;;;;;5074245;28;20041;-48
2022/02/21 06:04:18;;;;;;;0.98;0.60;;;;;;;;;;5073634;28;20100;-45
2022/02/21 06:06:45;;;;;;;1.00;0.47;;;;;;;;;;5072893;28;20056;-45
2022/02/21 06:09:11;;;;;;;1.85;0.77;;;;;;;;;;5073590;28;20517;-45
2022/02/21 06:11:37;;;;;;;0.90;0.57;;;;;;;;;;5072921;28;20071;-45
2022/02/21 06:14:03;;;;;;;1.95;0.55;;;;;;;;;;5074057;28;20048;-45
2022/02/21 06:16:29;;;;;;;0.85;0.65;;;;;;;;;;5073383;28;20469;-45
2022/02/21 06:18:55;;;;;;;0.55;0.32;;;;;;;;;;5074085;28;20024;-45
2022/02/21 06:21:21;;;;;;;1.83;0.60;;;;;;;;;;5073460;28;20101;-46
2022/02/21 06:23:47;;;;;;;0.88;0.40;;;;;;;;;;5073124;28;20028;-45
2022/02/21 06:26:14;;;;;;;1.35;0.60;;;;;;;;;;5073444;28;20032;-45
2022/02/21 06:28:40;;;;;;;1.88;1.13;;;;;;;;;;5072223;28;20074;-47
2022/02/21 06:31:09;;;;;;;4.70;1.13;;;;;;;;;;5072983;28;20024;-46
2022/02/21 06:33:35;;;;;;;2.90;0.65;;;;;;;;;;5072794;28;20052;-50
2022/02/21 06:36:01;;;;;;;0.73;0.35;;;;;;;;;;5073470;28;20043;-45
2022/02/21 06:38:27;;;;;;;1.60;0.80;;;;;;;;;;5072982;28;20059;-45
2022/02/21 06:40:53;;;;;;;2.38;0.82;;;;;;;;;;5073628;28;20029;-46
2022/02/21 06:43:19;;;;;;;1.33;0.63;;;;;;;;;;5066415;28;20478;-48
2022/02/21 06:45:45;;;;;;;5.68;1.00;;;;;;;;;;5053047;28;20036;-46
2022/02/21 06:48:12;;;;;;;2.30;0.80;;;;;;;;;;5053417;28;20020;-47
2022/02/21 06:50:38;;;;;;;3.97;0.47;;;;;;;;;;5052883;28;20115;-50
2022/02/21 06:53:04;;;;;;;3.13;0.63;;;;;;;;;;5052813;28;20361;-46
2022/02/21 06:55:30;;;;;;;2.88;0.85;;;;;;;;;;5052679;28;20033;-46
2022/02/21 06:57:56;;;;;;;1.55;0.40;;;;;;;;;;5053313;28;20029;-47
2022/02/21 07:00:23;;;;;;;1.85;0.60;;;;;;;;;;5053090;28;20036;-47
2022/02/21 07:02:49;;;;;;;4.65;1.23;;;;;;;;;;5053125;28;20132;-48
2022/02/21 07:05:15;;;;;;;1.63;0.80;;;;;;;;;;5053145;28;20021;-45
2022/02/21 07:07:41;;;;;;;3.83;0.68;;;;;;;;;;5050093;28;20021;-47
2022/02/21 07:10:08;;;;;;;2.17;0.50;;;;;;;;;;5073504;28;20534;-48
2022/02/21 07:12:34;;;;;;;1.70;0.73;;;;;;;;;;5073539;28;20032;-45
2022/02/21 07:15:00;;;;;;;4.75;1.00;;;;;;;;;;5072433;28;20108;-50
2022/02/21 07:17:26;;;;;;;2.20;0.70;;;;;;;;;;5071823;28;20052;-45
2022/02/21 07:19:54;;;;;;;4.63;0.88;;;;;;;;;;5072492;28;20474;-45
2022/02/21 07:22:20;;;;;;;5.57;0.93;;;;;;;;;;5072088;28;20024;-45
2022/02/21 07:24:46;;;;;;;4.47;1.10;;;;;;;;;;5071900;28;20428;-45
2022/02/21 07:27:12;;;;;;;5.10;1.30;;;;;;;;;;5071571;28;20108;-45
2022/02/21 07:29:38;;;;;;;6.43;1.40;;;;;;;;;;5071259;28;20424;-47
2022/02/21 07:32:05;;;;;;;3.75;1.27;;;;;;;;;;5072067;28;20021;-46
2022/02/21 07:34:31;;;;;;;2.10;1.00;;;;;;;;;;5071553;28;20020;-46
2022/02/21 07:36:57;;;;;;;5.85;0.98;;;;;;;;;;5072211;28;20065;-45
2022/02/21 07:39:23;;;;;;;5.55;1.58;;;;;;;;;;5052819;28;20052;-46
2022/02/21 07:41:49;;;;;;;4.18;1.10;;;;;;;;;;5072308;28;20105;-46
2022/02/21 07:44:16;;;;;;;5.85;1.02;;;;;;;;;;5071990;28;20036;-47
2022/02/21 07:46:42;;;;;;;6.85;1.60;;;;;;;;;;5071640;28;20343;-47
2022/02/21 07:49:08;;;;;;;5.57;1.50;;;;;;;;;;5072175;28;20073;-46
2022/02/21 07:51:34;;;;;;;3.83;1.33;;;;;;;;;;5071535;28;20070;-48
2022/02/21 07:54:01;;;;;;;3.65;0.90;;;;;;;;;;5072160;28;20021;-49
2022/02/21 07:56:27;;;;;;;3.88;1.27;;;;;;;;;;5071542;28;20024;-46
2022/02/21 07:58:53;;;;;;;5.50;0.98;;;;;;;;;;5072123;28;20078;-46
2022/02/21 08:01:19;;;;;;;4.75;1.10;;;;;;;;;;5072045;28;20040;-46
2022/02/21 08:03:45;;;;;;;5.13;1.00;;;;;;;;;;5070838;28;20434;-47
2022/02/21 08:06:11;;;;;;;3.15;1.23;;;;;;;;;;5072116;28;20021;-49
2022/02/21 08:08:38;;;;;;;3.10;0.85;;;;;;;;;;5070829;28;20024;-50
2022/02/21 08:11:04;;;;;;;3.17;1.02;;;;;;;;;;5070910;28;20465;-48
2022/02/21 08:13:30;;;;;;;5.65;1.30;;;;;;;;;;5062784;28;20511;-49
2022/02/21 08:15:56;;;;;;;9.75;1.30;;;;;;;;;;5051890;28;20025;-48
2022/02/21 08:18:22;;;;;;;6.38;1.75;;;;;;;;;;5051727;28;20036;-47
2022/02/21 08:20:48;;;;;;;4.70;1.30;;;;;;;;;;5050748;28;20029;-48
2022/02/21 08:23:14;;;;;;;4.20;1.25;;;;;;;;;;5051385;28;20017;-50
2022/02/21 08:25:40;;;;;;;4.80;1.20;;;;;;;;;;5050369;28;20013;-50
2022/02/21 08:28:06;;;;;;;2.67;1.20;;;;;;;;;;5051760;28;20020;-48
2022/02/21 08:30:32;;;;;;;5.20;1.73;;;;;;;;;;5050555;28;20408;-50
2022/02/21 08:32:58;;;;;;;4.70;1.20;;;;;;;;;;5051421;28;20442;-47
2022/02/21 08:35:24;;;;;;;4.75;1.20;;;;;;;;;;5051205;28;20489;-48
2022/02/21 08:37:50;;;;;;;4.10;1.15;;;;;;;;;;5061131;28;20072;-47
2022/02/21 08:40:17;;;;;;;3.83;1.02;;;;;;;;;;5090638;28;20028;-46
2022/02/21 08:42:43;;;;;;;3.85;1.10;;;;;;;;;;5083119;28;20131;-47
2022/02/21 08:45:13;;;;;;;3.28;0.93;;;;;;;;;;5092686;28;20020;-46
2022/02/21 08:47:40;;;;;;;2.83;1.15;;;;;;;;;;5092100;28;20453;-46
2022/02/21 08:50:10;;;;;;;4.45;1.50;;;;;;;;;;5090662;28;20385;-46
2022/02/21 08:52:38;;;;;;;5.53;2.00;;;;;;;;;;5089605;28;20039;-46
2022/02/21 08:55:05;;;;;;;3.17;1.10;;;;;;;;;;5090793;28;20016;-46
2022/02/21 08:57:31;;;;;;;4.63;1.23;;;;;;;;;;5090213;28;20107;-56
2022/02/21 08:59:57;;;;;;;2.72;1.20;;;;;;;;;;5090433;28;20559;-49
2022/02/21 09:02:23;;;;;;;4.75;1.42;;;;;;;;;;5091283;28;20021;-46
2022/02/21 09:04:49;;;;;;;5.35;1.40;;;;;;;;;;5090155;28;20028;-47
2022/02/21 09:07:15;;;;;;;5.28;1.65;;;;;;;;;;5090876;28;20039;-48
2022/02/21 09:09:41;;;;;;;3.67;1.83;;;;;;;;;;5087908;28;20396;-49
2022/02/21 09:12:07;;;;;;;2.70;1.45;;;;;;;;;;5089666;28;20032;-46
2022/02/21 09:14:33;;;;;;;4.10;1.63;;;;;;;;;;5089372;28;20499;-50
2022/02/21 09:16:59;;;;;;;3.17;1.10;;;;;;;;;;5095159;28;20024;-48
2022/02/21 09:19:25;;;;;;;4.90;1.20;;;;;;;;;;5094283;28;20022;-46
2022/02/21 09:21:51;;;;;;;3.28;0.93;;;;;;;;;;5094072;28;20937;-47
2022/02/21 09:24:17;;;;;;;3.85;1.30;;;;;;;;;;5095246;28;20099;-50
2022/02/21 09:26:43;;;;;;;2.47;1.08;;;;;;;;;;5093552;28;20102;-48
2022/02/21 09:29:09;;;;;;;4.05;1.30;;;;;;;;;;5094927;28;20372;-48
2022/02/21 09:31:35;;;;;;;4.90;1.40;;;;;;;;;;5094234;28;20093;-48
2022/02/21 09:34:01;;;;;;;4.82;1.40;;;;;;;;;;5092607;28;20097;-47
2022/02/21 09:36:27;;;;;;;4.60;1.73;;;;;;;;;;5094341;28;20020;-50
2022/02/21 09:38:53;;;;;;;4.85;1.40;;;;;;;;;;5075756;28;20087;-46
2022/02/21 09:41:20;;;;;;;6.65;1.40;;;;;;;;;;5073806;28;20482;-47
2022/02/21 09:43:46;;;;;;;5.00;1.30;;;;;;;;;;5072914;28;20021;-51
2022/02/21 09:46:12;;;;;;;6.00;1.55;;;;;;;;;;5073116;28;20086;-47
2022/02/21 09:48:39;;;;;;;4.32;1.17;;;;;;;;;;5073033;28;20377;-48
2022/02/21 09:51:07;;;;;;;4.53;1.33;;;;;;;;;;5073836;28;20029;-48
2022/02/21 09:53:34;;;;;;;5.68;1.38;;;;;;;;;;5072825;28;20048;-47
2022/02/21 09:56:00;;;;;;;4.57;1.58;;;;;;;;;;5073601;28;20020;-47
2022/02/21 09:58:26;;;;;;;5.10;1.60;;;;;;;;;;5073812;28;20060;-50
2022/02/21 10:00:54;;;;;;;3.20;1.30;;;;;;;;;;5073045;28;20036;-48
2022/02/21 10:03:39;;;;;;;6.28;1.63;;;;;;;;;;5073593;28;20024;-47
2022/02/21 10:06:22;;;;;;;2.70;1.38;;;;;;;;;;5073901;28;20512;-48
2022/02/21 10:08:54;;;;;;;2.83;1.27;;;;;;;;;;5071568;28;20016;-46
2022/02/21 10:11:19;;;;;;;;;;;;;;;;;;5073977;28;20024;-48
2022/02/21 10:13:55;;;;;;;4.18;1.52;;;;;;;;;;5072268;28;20003;-48
2022/02/21 10:16:21;;;;;;;3.35;1.17;;;;;;;;;;5073495;28;20024;-46
2022/02/21 10:18:48;;;;;;;4.68;2.05;;;;;;;;;;5072111;28;20025;-51
2022/02/21 10:21:14;;;;;;;5.63;1.85;;;;;;;;;;5073205;28;20032;-47
2022/02/21 10:23:43;;;;;;;5.38;1.77;;;;;;;;;;5072190;28;20024;-47
2022/02/21 10:26:09;;;;;;;3.90;1.58;;;;;;;;;;5072396;28;20052;-49
2022/02/21 10:28:37;;;;;;;3.38;1.77;;;;;;;;;;5072282;28;20066;-46
2022/02/21 10:31:17;;;;;;;3.25;1.50;;;;;;;;;;5073348;28;20424;-46
2022/02/21 10:33:48;;;;;;;4.20;1.67;;;;;;;;;;5071960;28;20052;-46
2022/02/21 10:36:27;;;;;;;4.30;1.50;;;;;;;;;;5073118;28;20369;-46
2022/02/21 10:38:54;;;;;;;3.72;1.58;;;;;;;;;;5070867;28;20045;-49
2022/02/21 10:41:22;;;;;;;3.97;1.92;;;;;;;;;;5072908;28;20381;-47
2022/02/21 10:43:48;;;;;;;3.47;1.50;;;;;;;;;;5072083;28;20065;-46
2022/02/21 10:46:15;;;;;;;4.25;1.25;;;;;;;;;;5072382;28;20335;-46
2022/02/21 10:48:44;;;;;;;4.50;1.40;;;;;;;;;;5071728;28;20094;-47
2022/02/21 10:51:11;;;;;;;3.60;1.58;;;;;;;;;;5073115;28;20028;-48
2022/02/21 10:53:39;;;;;;;3.20;0.95;;;;;;;;;;5071877;28;20020;-46
2022/02/21 10:56:05;;;;;;;2.72;1.05;;;;;;;;;;5072475;28;20103;-46
2022/02/21 10:58:31;;;;;;;4.68;1.48;;;;;;;;;;5071379;28;20024;-54
2022/02/21 11:00:58;;;;;;;5.47;1.15;;;;;;;;;;5071805;28;20048;-51
2022/02/21 11:03:26;;;;;;;4.65;1.85;;;;;;;;;;5072367;28;20158;-48
2022/02/21 11:05:53;;;;;;;3.15;1.15;;;;;;;;;;5070782;28;20028;-48
2022/02/21 11:08:21;;;;;;;3.90;1.60;;;;;;;;;;5071402;28;20033;-49
2022/02/21 11:11:00;;;;;;;5.38;1.35;;;;;;;;;;5060284;28;20040;-50
2022/02/21 11:13:29;;;;;;;1.85;0.85;;;;;;;;;;5054212;28;20029;-47
2022/02/21 11:15:56;;;;;;;3.22;1.20;;;;;;;;;;5071158;28;20145;-47
2022/02/21 11:18:22;;;;;;;2.63;1.23;;;;;;;;;;5072136;28;20382;-45
2022/02/21 11:20:48;;;;;;;2.28;0.85;;;;;;;;;;5071317;28;20028;-46
2022/02/21 11:23:14;;;;;;;2.63;1.10;;;;;;;;;;5072026;28;20028;-46
2022/02/21 11:25:49;;;;;;;3.72;1.20;;;;;;;;;;5071039;28;20534;-47
2022/02/21 11:28:19;;;;;;;2.80;0.90;;;;;;;;;;5071372;28;20028;-47
2022/02/21 11:30:45;;;;;;;4.43;1.42;;;;;;;;;;5071184;28;20032;-46
2022/02/21 11:33:13;;;;;;;2.67;1.42;;;;;;;;;;5070969;28;20017;-45
2022/02/21 11:35:58;;;;;;;1.83;1.08;;;;;;;;;;5070512;28;20028;-46
2022/02/21 11:38:25;;;;;;;3.42;1.00;;;;;;;;;;5069851;28;20036;-46
2022/02/21 11:40:56;;;;;;;2.15;0.88;;;;;;;;;;5070528;28;20032;-46
2022/02/21 11:43:25;;;;;;;2.75;0.90;;;;;;;;;;5064355;28;20027;-45
2022/02/21 11:45:55;;;;;;;1.88;1.23;;;;;;;;;;5055234;28;20465;-45
2022/02/21 11:48:21;;;;;;;2.85;1.10;;;;;;;;;;5071244;28;20470;-45
2022/02/21 11:50:47;;;;;;;5.15;1.60;;;;;;;;;;5070809;28;20377;-46
2022/02/21 11:53:24;;;;;;;3.70;1.33;;;;;;;;;;5071849;28;20039;-46
2022/02/21 11:55:51;;;;;;;1.75;0.70;;;;;;;;;;5070893;28;20032;-46
2022/02/21 11:58:18;;;;;;;2.17;0.80;;;;;;;;;;5071276;28;20468;-48
2022/02/21 12:00:45;;;;;;;3.65;1.60;;;;;;;;;;5070804;28;20036;-47
2022/02/21 12:03:11;;;;;;;3.63;1.50;;;;;;;;;;5071427;28;20025;-47
2022/02/21 12:05:37;;;;;;;2.08;1.20;;;;;;;;;;5056186;28;20033;-54
2022/02/21 12:08:19;;;;;;;2.70;1.23;;;;;;;;;;5046990;28;20021;-45
2022/02/21 12:11:15;;;;;;;1.42;0.70;;;;;;;;;;5068947;28;20474;-47
2022/02/21 12:13:47;;;;;;;2.10;0.90;;;;;;;;;;5048179;28;20029;-48
2022/02/21 12:16:14;;;;;;;2.58;1.20;;;;;;;;;;5072536;28;20025;-52
2022/02/21 12:18:41;;;;;;;2.40;0.90;;;;;;;;;;5070370;28;20434;-45
2022/02/21 12:21:09;;;;;;;2.28;0.90;;;;;;;;;;5071425;28;20032;-45
2022/02/21 12:23:35;;;;;;;4.45;2.15;;;;;;;;;;5069788;28;20398;-53
2022/02/21 12:26:01;;;;;;;3.00;1.30;;;;;;;;;;5051342;28;20091;-46
2022/02/21 12:28:29;;;;;;;3.22;1.00;;;;;;;;;;5064204;28;20037;-49
2022/02/21 12:30:59;;;;;;;3.10;1.02;;;;;;;;;;5070645;28;20032;-47
2022/02/21 12:33:29;;;;;;;1.45;0.73;;;;;;;;;;5071696;28;20446;-47
2022/02/21 12:35:57;;;;;;;3.55;0.70;;;;;;;;;;5070746;28;20021;-50
2022/02/21 12:38:23;;;;;;;3.22;0.70;;;;;;;;;;5082117;28;20075;-50
2022/02/21 12:41:02;;;;;;;2.47;0.88;;;;;;;;;;5090267;28;20040;-46
2022/02/21 12:43:43;;;;;;;2.28;1.00;;;;;;;;;;5089459;28;20381;-45
2022/02/21 12:46:09;;;;;;;2.33;0.93;;;;;;;;;;5090859;28;20032;-45
2022/02/21 12:48:35;;;;;;;2.08;0.80;;;;;;;;;;5090739;28;20319;-45
2022/02/21 12:51:01;;;;;;;2.55;0.93;;;;;;;;;;5094559;28;20024;-45
2022/02/21 12:53:27;;;;;;;2.72;0.80;;;;;;;;;;5095461;28;20027;-46
2022/02/21 12:55:59;;;;;;;3.70;0.90;;;;;;;;;;5094186;28;20024;-45
2022/02/21 12:58:35;;;;;;;6.05;1.00;;;;;;;;;;5095189;28;20040;-47
2022/02/21 13:01:02;;;;;;;3.65;1.48;;;;;;;;;;5094002;28;20035;-46
2022/02/21 13:03:28;;;;;;;4.60;1.20;;;;;;;;;;5101777;27;20030;-45
2022/02/21 13:05:57;;;;;;;1.98;0.70;;;;;;;;;;5093053;28;20016;-49
2022/02/21 13:08:37;;;;;;;3.75;1.23;;;;;;;;;;5093293;28;20028;-47
2022/02/21 13:11:03;;;;;;;2.53;1.17;;;;;;;;;;5090951;28;20468;-47
2022/02/21 13:13:29;;;;;;;2.30;0.85;;;;;;;;;;5094037;28;20115;-48
2022/02/21 13:15:55;;;;;;;1.17;0.60;;;;;;;;;;5092085;28;20030;-46
2022/02/21 13:18:21;;;;;;;2.20;1.08;;;;;;;;;;5092663;28;20468;-49
2022/02/21 13:20:47;;;;;;;1.90;0.90;;;;;;;;;;5091426;28;20032;-45
2022/02/21 13:23:14;;;;;;;2.53;0.80;;;;;;;;;;5081213;28;20028;-46
2022/02/21 13:25:41;;;;;;;1.10;0.60;;;;;;;;;;5089679;28;20796;-53
2022/02/21 13:28:14;;;;;;;1.35;0.50;;;;;;;;;;5093823;28;20039;-44
2022/02/21 13:30:40;;;;;;;1.85;0.70;;;;;;;;;;5095250;28;20106;-45
2022/02/21 13:33:12;;;;;;;2.05;0.88;;;;;;;;;;5093681;28;20103;-44
2022/02/21 13:35:39;;;;;;;1.90;0.90;;;;;;;;;;5093571;28;20374;-44
2022/02/21 13:38:05;;;;;;;1.83;0.77;;;;;;;;;;5094037;28;20044;-44
2022/02/21 13:40:32;;;;;;;2.47;1.23;;;;;;;;;;5094424;28;20111;-53
2022/02/21 13:43:02;;;;;;;2.33;0.98;;;;;;;;;;5093891;28;20016;-44
2022/02/21 13:45:29;;;;;;;1.02;0.63;;;;;;;;;;5093576;28;20012;-45
2022/02/21 13:48:10;;;;;;;1.80;0.85;;;;;;;;;;5093327;28;20051;-45
2022/02/21 13:50:38;;;;;;;2.40;0.70;;;;;;;;;;5093206;28;20554;-48
2022/02/21 13:53:05;;;;;;;1.98;0.70;;;;;;;;;;5094248;28;20073;-44
2022/02/21 13:55:34;;;;;;;2.97;1.00;;;;;;;;;;5094090;28;20051;-44
2022/02/21 13:58:00;;;;;;;1.30;0.70;;;;;;;;;;5092953;28;20601;-44
2022/02/21 14:00:35;;;;;;;1.20;0.52;;;;;;;;;;5093251;28;20036;-44
2022/02/21 14:03:01;;;;;;;1.42;0.88;;;;;;;;;;5093502;28;20107;-46
2022/02/21 14:05:27;;;;;;;1.58;0.70;;;;;;;;;;5094325;28;20423;-44
2022/02/21 14:07:53;;;;;;;1.38;0.63;;;;;;;;;;5092566;28;20096;-48
2022/02/21 14:10:21;;;;;;;1.70;0.60;;;;;;;;;;5094027;28;20074;-44
2022/02/21 14:13:03;;;;;;;2.38;0.65;;;;;;;;;;5093114;28;20028;-45
2022/02/21 14:15:29;;;;;;;;;;;;;;;;;;5093706;28;20095;-49
2022/02/21 14:17:55;;;;;;;1.75;0.52;;;;;;;;;;5092691;28;19943;-46
2022/02/21 14:20:22;;;;;;;1.35;0.68;;;;;;;;;;5092747;28;20496;-46
2022/02/21 14:22:48;;;;;;;0.93;0.50;;;;;;;;;;5092729;28;20107;-46
2022/02/21 14:25:16;;;;;;;0.45;0.40;;;;;;;;;;5093315;28;20513;-47
2022/02/21 14:27:42;;;;;;;1.05;0.70;;;;;;;;;;5092888;28;20020;-46
2022/02/21 14:30:08;;;;;;;3.80;1.10;;;;;;;;;;5093279;28;20580;-45
2022/02/21 14:32:34;;;;;;;1.10;0.50;;;;;;;;;;5092938;28;20023;-52
2022/02/21 14:35:00;;;;;;;2.40;1.00;;;;;;;;;;5092426;28;20103;-45
2022/02/21 14:37:26;;;;;;;2.13;0.60;;;;;;;;;;5092512;28;20071;-45
2022/02/21 14:39:52;;;;;;;1.25;0.65;;;;;;;;;;5092301;28;20485;-44
2022/02/21 14:42:18;;;;;;;2.65;0.60;;;;;;;;;;5093116;28;20035;-45